Helena, AR

5:33 AM CDT on July 28, 2014 (GMT -0500)
Fletcher (KCKM) Elev 174 ft | 34.30 °N, 90.51 °W | Change Station

Current weather conditions updated 18 minutes ago

Clear
Clear
73 °F
Feels Like 73 °F
N
4
Wind Variable Wind from NNW

Today is forecast to be Cooler than yesterday.

Today
High -- | Low -- °F
--% Chance of Precip.
Yesterday
High -- | Low -- °F
Precip. -- in
6:09 AM 8:07 PM
New Moon, 2% visible
Pressure 30.01 in
Visibility 10.0 miles
Clouds Clear
Dew Point 72 °F
Humidity 94%
Rainfall 0.00 in
Snow Depth Not available.
UV 0 out of 12
Pollen 7.10 out of 12
Air Quality Not available.
Flu Activity Not available.
METAR KCKM 281015Z AUTO 33003KT 10SM CLR 23/22 A3001 RMK AO1

More Conditions Fewer Conditions

Pressure 30.01 in
Visibility 10.0 miles
Clouds Clear
Dew Point 72 °F
Humidity 94%
Rainfall 0.00 in
Snow Depth Not available.
UV 0 out of 12
Pollen 7.10 out of 12
Air Quality Not available.
Flu Activity Not available.
METAR KCKM 281015Z AUTO 33003KT 10SM CLR 23/22 A3001 RMK AO1

More Conditions Fewer Conditions

10-Day Weather Forecast

Almanac

Astronomy

Jul. 28, 2014 Rise Set
Actual Time 6:09 AM CDT 8:07 PM CDT
Civil Twilight 5:41 AM CDT 8:35 PM CDT
Nautical Twilight 5:08 AM CDT 9:09 PM CDT
Astronomical Twilight 4:31 AM CDT 9:45 PM CDT
Moon 7:45 AM CDT 8:57 PM CDT
Length of Visible Light 14h 53m
Length of Day
13h 57m
Tomorrow will be 1m 31s shorter.
New Moon, 2% of the Moon is Illuminated
Today
New Moon
Aug 3
First Quarter
Aug 10
Full
Aug 17
Last Quarter
Aug 25
New

Today's Extremes

State Highs State Lows

Community

WunderPhotos

Upload Photos

1,738,295 photos uploaded!

Nearby

Snow Depth

Station Depth Elevation
No new snow has been reported.

Earthquake Activity

City Distance Mag. Time & Date
No recent earthquake activity has been reported nearby.
Minimum magnitude displayed is 2.5.

Coastal Water Temperatures

Place Temperature
No Stations Reporting

Nearby Weather Stations

Station Location Temp. Heat Index Dew Point Humidity Wind Precip. Elev Updated Type
MesoWest TUNICA , Tunica, MS 76 °F 77 °F 68 °F 76% ESE  at  5 mph 0.00 in / hr 259 ft 4:00 AM CDT MADIS
RAWS MARIANNA AR, La Grange, AR 75 °F 76 °F 67 °F 77% NW  at  3 mph 0.00 in / hr 252 ft 4:39 AM CDT MADIS
marianna,arrkansas, Marianna, AR 73.8 °F 74 °F 68 °F 83% West  at  2.7 mph - / hr 230 ft 5:23 AM CDT Normal

Show More Stations Show Fewer Stations